KRHV/RHV METAR and TAF weather

Enter ICAO airport designator
Station Type Date Time Source
KRHV METAR 2020/07/07 23:47 UTC NOAA

KRHV 072347Z 32008KT 10SM SKC 28/09 A2991


Station Type Date Time Source
KRHV Decoded METAR 2020/07/07 23:47 UTC NOAA

San Jose / Reid / Hillv, CA, United States (KRHV) 37-20N 121-49W
Jul 07, 2020 - 07:47 PM EDT / 2020.07.07 2347 UTC
Wind: from the NW (320 degrees) at 9 MPH (8 KT):0
Visibility: 10 mile(s):0
Sky conditions: clear
Temperature: 82 F (28 C)
Dew Point: 48 F (9 C)
Relative Humidity: 30%
Pressure (altimeter): 29.91 in. Hg (1012 hPa)
ob: KRHV 072347Z 32008KT 10SM SKC 28/09 A2991
cycle: 0

Station Type Date Time Source
KRHV TAF UTC NOAA

Error!

Example: see airport list